Main page
METAR-TAF:

METAR-TAF

Airports :

Coles County Memorial Airport

Mattoon / Charleston, Illinois, United States

latitude: 39-28-41N, longitude: 088-16-45W, elevation: 722 ft

Current weather observation

The report was made 1 hour and 1 minutes ago, at 10:53 UTC
Wind 9 mph from the South
Temperature 36°F
Humidity 75%
Pressure 30.08 in. Hg
Visibility: 10 miles
Overcast at a height of 6500 ft

METAR: KMTO 231053Z AUTO 19008KT 10SM OVC065 02/M02 A3008 RMK AO2 SLP191 T00221022

Time: 05:54 (11:54 UTC)


TAF: missing

Weather observations and forecasts of more than 4000 airports (METAR and TAF reports).

The available stations are represented by yellow and red dots on the map.

Hover mouse over dot to see the name of the station.

Then click to see weather observations and forecasts.

To change the map : click on the green buttons with a black cross to zoom in, on the green button with a dash to zoom out, or on the green arrows for adjacent maps.


METAR-TAF: